sensor_id;sensor_type;location;lat;lon;timestamp;temperature;humidity
41116;DHT22;26861;51.824;4.682;2024-01-15T00:00:13;12.40;67.60
41116;DHT22;26861;51.824;4.682;2024-01-15T00:02:38;12.30;66.90
41116;DHT22;26861;51.824;4.682;2024-01-15T00:05:04;12.30;67.40
41116;DHT22;26861;51.824;4.682;2024-01-15T00:07:29;12.40;67.20
41116;DHT22;26861;51.824;4.682;2024-01-15T00:09:55;12.40;67.30
41116;DHT22;26861;51.824;4.682;2024-01-15T00:12:20;12.30;67.20
41116;DHT22;26861;51.824;4.682;2024-01-15T00:14:46;12.40;67.20
41116;DHT22;26861;51.824;4.682;2024-01-15T00:17:11;12.40;67.40
41116;DHT22;26861;51.824;4.682;2024-01-15T00:19:37;12.30;67.10
41116;DHT22;26861;51.824;4.682;2024-01-15T00:22:03;12.40;67.20
41116;DHT22;26861;51.824;4.682;2024-01-15T00:24:29;12.30;66.30
41116;DHT22;26861;51.824;4.682;2024-01-15T00:26:54;12.30;66.60
41116;DHT22;26861;51.824;4.682;2024-01-15T00:29:20;12.40;67.00
41116;DHT22;26861;51.824;4.682;2024-01-15T00:31:46;12.40;67.00
41116;DHT22;26861;51.824;4.682;2024-01-15T00:34:11;12.40;67.00
41116;DHT22;26861;51.824;4.682;2024-01-15T00:36:37;12.40;67.00
41116;DHT22;26861;51.824;4.682;2024-01-15T00:39:02;12.40;67.00
41116;DHT22;26861;51.824;4.682;2024-01-15T00:41:30;12.40;66.80
41116;DHT22;26861;51.824;4.682;2024-01-15T00:43:56;12.40;67.30
41116;DHT22;26861;51.824;4.682;2024-01-15T00:46:21;12.30;66.90
41116;DHT22;26861;51.824;4.682;2024-01-15T00:48:47;12.40;66.90
41116;DHT22;26861;51.824;4.682;2024-01-15T00:51:12;12.40;66.90
41116;DHT22;26861;51.824;4.682;2024-01-15T00:53:38;12.40;67.30
41116;DHT22;26861;51.824;4.682;2024-01-15T00:56:03;12.40;67.30
41116;DHT22;26861;51.824;4.682;2024-01-15T00:58:29;12.40;67.10
41116;DHT22;26861;51.824;4.682;2024-01-15T01:00:54;12.40;67.60
41116;DHT22;26861;51.824;4.682;2024-01-15T01:03:20;12.20;67.10
41116;DHT22;26861;51.824;4.682;2024-01-15T01:05:48;12.40;67.90
41116;DHT22;26861;51.824;4.682;2024-01-15T01:08:13;12.40;67.10
41116;DHT22;26861;51.824;4.682;2024-01-15T01:10:39;12.40;67.50
41116;DHT22;26861;51.824;4.682;2024-01-15T01:13:05;12.40;67.40
41116;DHT22;26861;51.824;4.682;2024-01-15T01:15:31;12.40;67.40
41116;DHT22;26861;51.824;4.682;2024-01-15T01:17:57;12.40;67.30
41116;DHT22;26861;51.824;4.682;2024-01-15T01:20:23;12.40;67.40
41116;DHT22;26861;51.824;4.682;2024-01-15T01:22:48;12.30;67.30
41116;DHT22;26861;51.824;4.682;2024-01-15T01:25:14;12.30;67.60
41116;DHT22;26861;51.824;4.682;2024-01-15T01:27:40;12.50;67.10
41116;DHT22;26861;51.824;4.682;2024-01-15T01:30:05;12.50;67.40
41116;DHT22;26861;51.824;4.682;2024-01-15T01:32:31;12.40;65.10
41116;DHT22;26861;51.824;4.682;2024-01-15T01:34:56;12.50;67.40
41116;DHT22;26861;51.824;4.682;2024-01-15T01:37:22;12.40;67.20
41116;DHT22;26861;51.824;4.682;2024-01-15T01:39:47;12.40;67.30
41116;DHT22;26861;51.824;4.682;2024-01-15T01:42:13;12.40;67.30
41116;DHT22;26861;51.824;4.682;2024-01-15T01:44:38;12.30;67.20
41116;DHT22;26861;51.824;4.682;2024-01-15T01:47:04;12.40;67.20
41116;DHT22;26861;51.824;4.682;2024-01-15T01:49:30;12.40;67.50
41116;DHT22;26861;51.824;4.682;2024-01-15T01:51:57;12.30;66.80
41116;DHT22;26861;51.824;4.682;2024-01-15T01:54:23;12.40;67.60
41116;DHT22;26861;51.824;4.682;2024-01-15T01:56:49;12.40;67.50
41116;DHT22;26861;51.824;4.682;2024-01-15T01:59:15;12.30;67.60
41116;DHT22;26861;51.824;4.682;2024-01-15T02:01:41;12.30;66.70
41116;DHT22;26861;51.824;4.682;2024-01-15T02:04:08;12.40;67.40
41116;DHT22;26861;51.824;4.682;2024-01-15T02:06:34;12.30;67.30
41116;DHT22;26861;51.824;4.682;2024-01-15T02:08:59;12.30;67.10
41116;DHT22;26861;51.824;4.682;2024-01-15T02:11:25;12.30;67.20
41116;DHT22;26861;51.824;4.682;2024-01-15T02:13:50;12.30;67.20
41116;DHT22;26861;51.824;4.682;2024-01-15T02:16:16;12.40;67.10
41116;DHT22;26861;51.824;4.682;2024-01-15T02:18:45;12.30;67.00
41116;DHT22;26861;51.824;4.682;2024-01-15T02:21:11;12.40;62.00
41116;DHT22;26861;51.824;4.682;2024-01-15T02:23:37;12.40;67.00
41116;DHT22;26861;51.824;4.682;2024-01-15T02:26:03;12.30;66.70
41116;DHT22;26861;51.824;4.682;2024-01-15T02:28:29;12.30;66.40
41116;DHT22;26861;51.824;4.682;2024-01-15T02:30:55;12.30;66.40
41116;DHT22;26861;51.824;4.682;2024-01-15T02:33:21;12.30;66.60
41116;DHT22;26861;51.824;4.682;2024-01-15T02:35:46;12.30;66.70
41116;DHT22;26861;51.824;4.682;2024-01-15T02:38:12;12.30;66.60
41116;DHT22;26861;51.824;4.682;2024-01-15T02:40:38;12.30;66.20
41116;DHT22;26861;51.824;4.682;2024-01-15T02:43:04;12.40;66.70
41116;DHT22;26861;51.824;4.682;2024-01-15T02:45:30;12.30;66.80
41116;DHT22;26861;51.824;4.682;2024-01-15T02:47:55;12.30;66.70
41116;DHT22;26861;51.824;4.682;2024-01-15T02:50:21;12.30;66.80
41116;DHT22;26861;51.824;4.682;2024-01-15T02:52:47;12.40;66.90
41116;DHT22;26861;51.824;4.682;2024-01-15T02:55:13;12.30;66.80
41116;DHT22;26861;51.824;4.682;2024-01-15T02:57:39;12.40;66.90
41116;DHT22;26861;51.824;4.682;2024-01-15T03:00:05;12.40;66.80
41116;DHT22;26861;51.824;4.682;2024-01-15T03:02:35;12.30;66.20
41116;DHT22;26861;51.824;4.682;2024-01-15T03:05:01;12.30;66.80
41116;DHT22;26861;51.824;4.682;2024-01-15T03:07:28;12.30;66.70
41116;DHT22;26861;51.824;4.682;2024-01-15T03:09:54;12.30;66.80
41116;DHT22;26861;51.824;4.682;2024-01-15T03:12:19;12.30;66.60
41116;DHT22;26861;51.824;4.682;2024-01-15T03:14:45;12.20;66.50
41116;DHT22;26861;51.824;4.682;2024-01-15T03:17:12;12.30;66.20
41116;DHT22;26861;51.824;4.682;2024-01-15T03:19:38;12.30;66.60
41116;DHT22;26861;51.824;4.682;2024-01-15T03:22:04;12.30;66.50
41116;DHT22;26861;51.824;4.682;2024-01-15T03:24:31;12.30;66.50
41116;DHT22;26861;51.824;4.682;2024-01-15T03:26:57;12.30;66.50
41116;DHT22;26861;51.824;4.682;2024-01-15T03:29:23;12.20;66.40
41116;DHT22;26861;51.824;4.682;2024-01-15T03:31:49;12.20;66.30
41116;DHT22;26861;51.824;4.682;2024-01-15T03:34:15;12.30;66.20
41116;DHT22;26861;51.824;4.682;2024-01-15T03:36:41;12.20;66.50
41116;DHT22;26861;51.824;4.682;2024-01-15T03:39:07;12.20;66.10
41116;DHT22;26861;51.824;4.682;2024-01-15T03:41:33;12.20;66.50
41116;DHT22;26861;51.824;4.682;2024-01-15T03:43:59;12.20;66.30
41116;DHT22;26861;51.824;4.682;2024-01-15T03:46:25;12.20;66.40
41116;DHT22;26861;51.824;4.682;2024-01-15T03:48:51;12.20;66.50
41116;DHT22;26861;51.824;4.682;2024-01-15T03:51:19;12.20;66.20
41116;DHT22;26861;51.824;4.682;2024-01-15T03:53:45;12.20;61.60
41116;DHT22;26861;51.824;4.682;2024-01-15T03:56:11;12.20;66.20
41116;DHT22;26861;51.824;4.682;2024-01-15T03:58:37;12.20;65.90
41116;DHT22;26861;51.824;4.682;2024-01-15T04:01:03;12.20;66.00
41116;DHT22;26861;51.824;4.682;2024-01-15T04:03:29;12.20;65.60
41116;DHT22;26861;51.824;4.682;2024-01-15T04:05:55;12.20;66.10
41116;DHT22;26861;51.824;4.682;2024-01-15T04:08:21;12.50;66.10
41116;DHT22;26861;51.824;4.682;2024-01-15T04:10:47;12.20;66.30
41116;DHT22;26861;51.824;4.682;2024-01-15T04:13:13;12.10;66.00
41116;DHT22;26861;51.824;4.682;2024-01-15T04:15:39;12.20;66.30
41116;DHT22;26861;51.824;4.682;2024-01-15T04:18:05;12.10;66.30
41116;DHT22;26861;51.824;4.682;2024-01-15T04:20:31;12.20;66.40
41116;DHT22;26861;51.824;4.682;2024-01-15T04:22:56;12.10;66.70
41116;DHT22;26861;51.824;4.682;2024-01-15T04:25:22;12.10;66.60
41116;DHT22;26861;51.824;4.682;2024-01-15T04:27:48;12.20;66.70
41116;DHT22;26861;51.824;4.682;2024-01-15T04:30:14;12.20;66.80
41116;DHT22;26861;51.824;4.682;2024-01-15T04:32:40;12.20;66.40
41116;DHT22;26861;51.824;4.682;2024-01-15T04:35:06;12.10;66.80
41116;DHT22;26861;51.824;4.682;2024-01-15T04:37:32;12.10;65.80
41116;DHT22;26861;51.824;4.682;2024-01-15T04:39:58;12.10;67.60
41116;DHT22;26861;51.824;4.682;2024-01-15T04:42:24;12.10;66.90
41116;DHT22;26861;51.824;4.682;2024-01-15T04:44:50;12.20;67.00
41116;DHT22;26861;51.824;4.682;2024-01-15T04:47:17;12.10;66.90
41116;DHT22;26861;51.824;4.682;2024-01-15T04:49:43;12.20;67.20
41116;DHT22;26861;51.824;4.682;2024-01-15T04:52:08;12.10;66.40
41116;DHT22;26861;51.824;4.682;2024-01-15T04:54:54;12.20;66.70
41116;DHT22;26861;51.824;4.682;2024-01-15T04:57:20;12.10;66.90
41116;DHT22;26861;51.824;4.682;2024-01-15T04:59:46;12.20;66.90
41116;DHT22;26861;51.824;4.682;2024-01-15T05:08:17;12.10;62.40
41116;DHT22;26861;51.824;4.682;2024-01-15T05:10:43;12.30;67.40
41116;DHT22;26861;51.824;4.682;2024-01-15T05:13:08;12.30;67.30
41116;DHT22;26861;51.824;4.682;2024-01-15T05:15:33;12.50;67.20
41116;DHT22;26861;51.824;4.682;2024-01-15T05:17:59;12.30;67.20
41116;DHT22;26861;51.824;4.682;2024-01-15T05:20:25;12.20;67.00
41116;DHT22;26861;51.824;4.682;2024-01-15T05:22:50;12.20;67.80
41116;DHT22;26861;51.824;4.682;2024-01-15T05:25:15;12.40;67.00
41116;DHT22;26861;51.824;4.682;2024-01-15T05:27:41;12.30;67.00
41116;DHT22;26861;51.824;4.682;2024-01-15T05:30:07;12.30;67.00
41116;DHT22;26861;51.824;4.682;2024-01-15T05:32:34;12.20;64.50
41116;DHT22;26861;51.824;4.682;2024-01-15T05:34:59;12.20;66.90
41116;DHT22;26861;51.824;4.682;2024-01-15T05:37:25;12.30;66.90
41116;DHT22;26861;51.824;4.682;2024-01-15T05:39:51;12.20;66.60
41116;DHT22;26861;51.824;4.682;2024-01-15T05:42:16;12.20;66.80
41116;DHT22;26861;51.824;4.682;2024-01-15T05:44:42;12.50;67.20
41116;DHT22;26861;51.824;4.682;2024-01-15T05:47:07;12.20;66.80
41116;DHT22;26861;51.824;4.682;2024-01-15T05:49:33;12.40;66.90
41116;DHT22;26861;51.824;4.682;2024-01-15T05:51:58;12.60;66.70
41116;DHT22;26861;51.824;4.682;2024-01-15T05:54:24;12.20;66.90
41116;DHT22;26861;51.824;4.682;2024-01-15T05:56:49;12.30;66.80
41116;DHT22;26861;51.824;4.682;2024-01-15T05:59:15;12.20;66.80
41116;DHT22;26861;51.824;4.682;2024-01-15T06:01:40;12.20;66.30
41116;DHT22;26861;51.824;4.682;2024-01-15T06:04:06;12.30;66.50
41116;DHT22;26861;51.824;4.682;2024-01-15T06:06:32;12.30;66.40
41116;DHT22;26861;51.824;4.682;2024-01-15T06:08:57;12.30;66.50
41116;DHT22;26861;51.824;4.682;2024-01-15T06:11:29;12.20;66.30
41116;DHT22;26861;51.824;4.682;2024-01-15T06:13:54;12.30;66.40
41116;DHT22;26861;51.824;4.682;2024-01-15T06:16:20;12.20;66.50
41116;DHT22;26861;51.824;4.682;2024-01-15T06:18:46;12.20;66.30
41116;DHT22;26861;51.824;4.682;2024-01-15T06:21:12;12.20;66.40
41116;DHT22;26861;51.824;4.682;2024-01-15T06:23:39;12.40;66.60
41116;DHT22;26861;51.824;4.682;2024-01-15T06:26:05;12.20;66.30
41116;DHT22;26861;51.824;4.682;2024-01-15T06:28:30;12.00;66.20
41116;DHT22;26861;51.824;4.682;2024-01-15T06:30:56;12.20;66.40
41116;DHT22;26861;51.824;4.682;2024-01-15T06:33:22;12.20;66.20
41116;DHT22;26861;51.824;4.682;2024-01-15T06:35:47;12.10;66.20
41116;DHT22;26861;51.824;4.682;2024-01-15T06:38:13;12.20;66.00
41116;DHT22;26861;51.824;4.682;2024-01-15T06:40:38;12.10;65.90
41116;DHT22;26861;51.824;4.682;2024-01-15T06:43:06;12.10;65.90
41116;DHT22;26861;51.824;4.682;2024-01-15T06:45:32;12.10;66.10
41116;DHT22;26861;51.824;4.682;2024-01-15T06:47:57;12.10;66.60
41116;DHT22;26861;51.824;4.682;2024-01-15T06:50:23;12.20;66.20
41116;DHT22;26861;51.824;4.682;2024-01-15T06:52:49;12.10;66.10
41116;DHT22;26861;51.824;4.682;2024-01-15T06:55:14;12.10;66.10
41116;DHT22;26861;51.824;4.682;2024-01-15T06:57:40;12.10;66.40
41116;DHT22;26861;51.824;4.682;2024-01-15T07:00:05;12.00;66.10
41116;DHT22;26861;51.824;4.682;2024-01-15T07:02:33;12.10;65.90
41116;DHT22;26861;51.824;4.682;2024-01-15T07:04:58;12.00;66.00
41116;DHT22;26861;51.824;4.682;2024-01-15T07:07:24;12.10;66.10
41116;DHT22;26861;51.824;4.682;2024-01-15T07:09:50;12.00;66.00
41116;DHT22;26861;51.824;4.682;2024-01-15T07:12:17;12.00;66.20
41116;DHT22;26861;51.824;4.682;2024-01-15T07:14:43;12.00;66.40
41116;DHT22;26861;51.824;4.682;2024-01-15T07:17:08;12.00;66.60
41116;DHT22;26861;51.824;4.682;2024-01-15T07:19:34;12.00;66.40
41116;DHT22;26861;51.824;4.682;2024-01-15T07:21:59;12.00;66.60
41116;DHT22;26861;51.824;4.682;2024-01-15T07:24:25;12.10;66.40
41116;DHT22;26861;51.824;4.682;2024-01-15T07:26:50;12.00;66.50
41116;DHT22;26861;51.824;4.682;2024-01-15T07:29:16;12.00;65.80
41116;DHT22;26861;51.824;4.682;2024-01-15T07:31:47;12.10;66.40
41116;DHT22;26861;51.824;4.682;2024-01-15T07:34:12;12.00;66.40
41116;DHT22;26861;51.824;4.682;2024-01-15T07:36:38;12.10;66.30
41116;DHT22;26861;51.824;4.682;2024-01-15T07:39:03;12.10;65.60
41116;DHT22;26861;51.824;4.682;2024-01-15T07:41:29;12.10;66.10
41116;DHT22;26861;51.824;4.682;2024-01-15T07:43:55;12.00;66.10
41116;DHT22;26861;51.824;4.682;2024-01-15T07:46:20;12.10;66.00
41116;DHT22;26861;51.824;4.682;2024-01-15T07:48:46;12.30;66.00
41116;DHT22;26861;51.824;4.682;2024-01-15T07:51:12;12.50;66.20
41116;DHT22;26861;51.824;4.682;2024-01-15T07:53:38;12.10;66.00
41116;DHT22;26861;51.824;4.682;2024-01-15T07:56:03;12.00;65.90
41116;DHT22;26861;51.824;4.682;2024-01-15T07:58:29;12.00;65.80
41116;DHT22;26861;51.824;4.682;2024-01-15T08:00:54;12.10;66.20
41116;DHT22;26861;51.824;4.682;2024-01-15T08:03:20;12.00;66.00
41116;DHT22;26861;51.824;4.682;2024-01-15T08:05:45;12.10;66.40
41116;DHT22;26861;51.824;4.682;2024-01-15T08:08:12;12.00;66.30
41116;DHT22;26861;51.824;4.682;2024-01-15T08:10:37;12.00;66.20
41116;DHT22;26861;51.824;4.682;2024-01-15T08:13:03;12.10;66.30
41116;DHT22;26861;51.824;4.682;2024-01-15T08:15:28;12.10;65.80
41116;DHT22;26861;51.824;4.682;2024-01-15T08:17:54;12.10;66.20
41116;DHT22;26861;51.824;4.682;2024-01-15T08:20:19;12.10;66.20
41116;DHT22;26861;51.824;4.682;2024-01-15T08:22:45;12.10;66.30
41116;DHT22;26861;51.824;4.682;2024-01-15T08:25:10;12.10;66.20
41116;DHT22;26861;51.824;4.682;2024-01-15T08:27:36;12.10;66.30
41116;DHT22;26861;51.824;4.682;2024-01-15T08:30:02;12.10;66.40
41116;DHT22;26861;51.824;4.682;2024-01-15T08:32:29;12.10;65.90
41116;DHT22;26861;51.824;4.682;2024-01-15T08:34:55;12.10;66.80
41116;DHT22;26861;51.824;4.682;2024-01-15T08:37:20;12.10;66.70
41116;DHT22;26861;51.824;4.682;2024-01-15T08:39:46;12.10;66.80
41116;DHT22;26861;51.824;4.682;2024-01-15T08:42:11;12.20;66.80
41116;DHT22;26861;51.824;4.682;2024-01-15T08:44:37;12.10;66.80
41116;DHT22;26861;51.824;4.682;2024-01-15T08:47:04;12.10;66.80
41116;DHT22;26861;51.824;4.682;2024-01-15T08:49:30;12.20;66.90
41116;DHT22;26861;51.824;4.682;2024-01-15T08:51:55;12.10;67.20
41116;DHT22;26861;51.824;4.682;2024-01-15T08:54:21;12.20;66.60
41116;DHT22;26861;51.824;4.682;2024-01-15T08:56:46;12.10;66.90
41116;DHT22;26861;51.824;4.682;2024-01-15T08:59:12;12.20;66.80
41116;DHT22;26861;51.824;4.682;2024-01-15T09:01:38;12.20;66.60
41116;DHT22;26861;51.824;4.682;2024-01-15T09:04:03;12.20;67.00
41116;DHT22;26861;51.824;4.682;2024-01-15T09:06:29;12.20;67.00
41116;DHT22;26861;51.824;4.682;2024-01-15T09:08:54;12.30;67.20
41116;DHT22;26861;51.824;4.682;2024-01-15T09:11:20;12.20;67.00
41116;DHT22;26861;51.824;4.682;2024-01-15T09:13:45;12.20;66.80
41116;DHT22;26861;51.824;4.682;2024-01-15T09:16:11;12.20;66.90
41116;DHT22;26861;51.824;4.682;2024-01-15T09:18:37;12.30;67.30
41116;DHT22;26861;51.824;4.682;2024-01-15T09:21:03;12.30;67.00
41116;DHT22;26861;51.824;4.682;2024-01-15T09:23:29;12.40;66.30
41116;DHT22;26861;51.824;4.682;2024-01-15T09:25:55;12.30;67.10
41116;DHT22;26861;51.824;4.682;2024-01-15T09:28:20;12.40;66.80
41116;DHT22;26861;51.824;4.682;2024-01-15T09:30:46;12.50;66.60
41116;DHT22;26861;51.824;4.682;2024-01-15T09:33:12;12.40;66.50
41116;DHT22;26861;51.824;4.682;2024-01-15T09:35:38;12.40;66.80
41116;DHT22;26861;51.824;4.682;2024-01-15T09:38:03;12.50;66.70
41116;DHT22;26861;51.824;4.682;2024-01-15T09:40:31;12.40;66.20
41116;DHT22;26861;51.824;4.682;2024-01-15T09:42:59;12.50;66.80
41116;DHT22;26861;51.824;4.682;2024-01-15T09:45:25;12.50;66.70
41116;DHT22;26861;51.824;4.682;2024-01-15T09:47:51;12.40;66.50
41116;DHT22;26861;51.824;4.682;2024-01-15T09:50:17;12.40;66.50
41116;DHT22;26861;51.824;4.682;2024-01-15T09:52:43;12.50;66.20
41116;DHT22;26861;51.824;4.682;2024-01-15T09:55:10;12.40;66.30
41116;DHT22;26861;51.824;4.682;2024-01-15T09:57:37;12.50;66.50
41116;DHT22;26861;51.824;4.682;2024-01-15T10:00:05;12.50;67.30
41116;DHT22;26861;51.824;4.682;2024-01-15T10:02:32;12.50;66.40
41116;DHT22;26861;51.824;4.682;2024-01-15T10:04:58;12.50;67.00
41116;DHT22;26861;51.824;4.682;2024-01-15T10:07:23;12.60;67.10
41116;DHT22;26861;51.824;4.682;2024-01-15T10:09:51;12.50;67.10
41116;DHT22;26861;51.824;4.682;2024-01-15T10:12:17;12.50;67.00
41116;DHT22;26861;51.824;4.682;2024-01-15T10:14:43;12.60;66.80
41116;DHT22;26861;51.824;4.682;2024-01-15T10:17:14;12.60;66.70
41116;DHT22;26861;51.824;4.682;2024-01-15T10:19:40;12.60;61.90
41116;DHT22;26861;51.824;4.682;2024-01-15T10:22:07;12.50;67.00
41116;DHT22;26861;51.824;4.682;2024-01-15T10:24:34;12.50;67.10
41116;DHT22;26861;51.824;4.682;2024-01-15T10:27:06;12.50;67.20
41116;DHT22;26861;51.824;4.682;2024-01-15T10:29:32;12.60;62.00
41116;DHT22;26861;51.824;4.682;2024-01-15T10:31:57;12.60;67.20
41116;DHT22;26861;51.824;4.682;2024-01-15T10:34:23;12.50;67.20
41116;DHT22;26861;51.824;4.682;2024-01-15T10:36:49;12.60;67.30
41116;DHT22;26861;51.824;4.682;2024-01-15T10:39:23;12.70;67.40
41116;DHT22;26861;51.824;4.682;2024-01-15T10:41:49;12.50;62.50
41116;DHT22;26861;51.824;4.682;2024-01-15T10:44:16;12.50;67.40
41116;DHT22;26861;51.824;4.682;2024-01-15T10:46:41;12.50;67.40
41116;DHT22;26861;51.824;4.682;2024-01-15T10:49:07;12.60;67.40
41116;DHT22;26861;51.824;4.682;2024-01-15T10:51:33;12.60;67.20
41116;DHT22;26861;51.824;4.682;2024-01-15T10:53:59;12.60;67.50
41116;DHT22;26861;51.824;4.682;2024-01-15T10:56:28;12.50;67.50
41116;DHT22;26861;51.824;4.682;2024-01-15T10:58:55;12.50;62.00
41116;DHT22;26861;51.824;4.682;2024-01-15T11:01:21;12.60;67.30
41116;DHT22;26861;51.824;4.682;2024-01-15T11:03:47;12.50;67.20
41116;DHT22;26861;51.824;4.682;2024-01-15T11:06:18;12.50;67.50
41116;DHT22;26861;51.824;4.682;2024-01-15T11:08:50;12.70;62.40
41116;DHT22;26861;51.824;4.682;2024-01-15T11:11:16;12.60;62.30
41116;DHT22;26861;51.824;4.682;2024-01-15T11:13:42;12.70;67.10
41116;DHT22;26861;51.824;4.682;2024-01-15T11:16:10;12.60;66.80
41116;DHT22;26861;51.824;4.682;2024-01-15T11:18:39;12.60;68.10
41116;DHT22;26861;51.824;4.682;2024-01-15T11:23:44;12.60;62.30
41116;DHT22;26861;51.824;4.682;2024-01-15T11:26:31;12.60;67.30
41116;DHT22;26861;51.824;4.682;2024-01-15T11:28:57;12.70;67.30
41116;DHT22;26861;51.824;4.682;2024-01-15T11:32:07;12.60;67.20
41116;DHT22;26861;51.824;4.682;2024-01-15T11:34:13;12.70;62.20
41116;DHT22;26861;51.824;4.682;2024-01-15T11:41:57;12.60;62.00
41116;DHT22;26861;51.824;4.682;2024-01-15T11:44:23;12.70;62.00
41116;DHT22;26861;51.824;4.682;2024-01-15T11:47:01;12.60;66.80
41116;DHT22;26861;51.824;4.682;2024-01-15T11:52:15;12.60;62.20
41116;DHT22;26861;51.824;4.682;2024-01-15T11:54:42;12.60;67.10
41116;DHT22;26861;51.824;4.682;2024-01-15T11:57:15;12.60;67.10
41116;DHT22;26861;51.824;4.682;2024-01-15T11:59:44;12.80;67.20
41116;DHT22;26861;51.824;4.682;2024-01-15T12:02:09;12.70;66.60
41116;DHT22;26861;51.824;4.682;2024-01-15T12:04:38;12.70;66.80
41116;DHT22;26861;51.824;4.682;2024-01-15T12:07:04;12.70;66.90
41116;DHT22;26861;51.824;4.682;2024-01-15T12:09:30;12.70;66.90
41116;DHT22;26861;51.824;4.682;2024-01-15T12:11:57;12.70;67.10
41116;DHT22;26861;51.824;4.682;2024-01-15T12:14:27;12.60;67.20
41116;DHT22;26861;51.824;4.682;2024-01-15T12:16:54;12.60;67.50
41116;DHT22;26861;51.824;4.682;2024-01-15T12:19:20;12.70;67.30
41116;DHT22;26861;51.824;4.682;2024-01-15T12:21:46;12.70;67.50
41116;DHT22;26861;51.824;4.682;2024-01-15T12:24:12;12.60;67.00
41116;DHT22;26861;51.824;4.682;2024-01-15T12:26:37;12.70;66.70
41116;DHT22;26861;51.824;4.682;2024-01-15T12:29:05;12.70;67.30
41116;DHT22;26861;51.824;4.682;2024-01-15T12:31:31;12.80;67.40
41116;DHT22;26861;51.824;4.682;2024-01-15T12:33:56;12.70;67.40
41116;DHT22;26861;51.824;4.682;2024-01-15T12:36:22;12.70;67.30
41116;DHT22;26861;51.824;4.682;2024-01-15T12:38:47;12.70;67.30
41116;DHT22;26861;51.824;4.682;2024-01-15T12:41:13;12.70;67.20
41116;DHT22;26861;51.824;4.682;2024-01-15T12:43:38;12.70;67.20
41116;DHT22;26861;51.824;4.682;2024-01-15T12:46:05;12.90;66.90
41116;DHT22;26861;51.824;4.682;2024-01-15T12:48:31;13.00;67.30
41116;DHT22;26861;51.824;4.682;2024-01-15T12:50:56;12.80;67.00
41116;DHT22;26861;51.824;4.682;2024-01-15T12:53:22;12.90;66.70
41116;DHT22;26861;51.824;4.682;2024-01-15T12:55:48;13.00;66.50
41116;DHT22;26861;51.824;4.682;2024-01-15T12:58:13;13.10;66.00
41116;DHT22;26861;51.824;4.682;2024-01-15T13:00:39;13.20;65.60
41116;DHT22;26861;51.824;4.682;2024-01-15T13:03:05;13.30;64.70
41116;DHT22;26861;51.824;4.682;2024-01-15T13:05:31;13.40;65.10
41116;DHT22;26861;51.824;4.682;2024-01-15T13:07:57;13.50;64.90
41116;DHT22;26861;51.824;4.682;2024-01-15T13:10:23;13.50;64.60
41116;DHT22;26861;51.824;4.682;2024-01-15T13:12:50;13.60;64.20
41116;DHT22;26861;51.824;4.682;2024-01-15T13:15:16;13.70;64.00
41116;DHT22;26861;51.824;4.682;2024-01-15T13:17:42;13.70;63.80
41116;DHT22;26861;51.824;4.682;2024-01-15T13:20:07;13.70;64.30
41116;DHT22;26861;51.824;4.682;2024-01-15T13:22:33;13.60;63.90
41116;DHT22;26861;51.824;4.682;2024-01-15T13:24:59;13.60;64.80
41116;DHT22;26861;51.824;4.682;2024-01-15T13:27:25;13.40;64.80
41116;DHT22;26861;51.824;4.682;2024-01-15T13:29:50;13.50;65.30
41116;DHT22;26861;51.824;4.682;2024-01-15T13:32:17;13.40;65.70
41116;DHT22;26861;51.824;4.682;2024-01-15T13:34:45;13.30;66.10
41116;DHT22;26861;51.824;4.682;2024-01-15T13:37:11;13.30;66.20
41116;DHT22;26861;51.824;4.682;2024-01-15T13:39:37;13.30;66.20
41116;DHT22;26861;51.824;4.682;2024-01-15T13:42:02;13.30;66.10
41116;DHT22;26861;51.824;4.682;2024-01-15T13:44:28;13.30;65.00
41116;DHT22;26861;51.824;4.682;2024-01-15T13:46:53;13.20;66.20
41116;DHT22;26861;51.824;4.682;2024-01-15T13:49:19;13.20;66.20
41116;DHT22;26861;51.824;4.682;2024-01-15T13:51:44;13.20;66.40
41116;DHT22;26861;51.824;4.682;2024-01-15T13:54:10;13.20;66.60
41116;DHT22;26861;51.824;4.682;2024-01-15T13:56:35;13.20;66.70
41116;DHT22;26861;51.824;4.682;2024-01-15T13:59:01;13.20;66.60
41116;DHT22;26861;51.824;4.682;2024-01-15T14:01:27;13.20;66.60
41116;DHT22;26861;51.824;4.682;2024-01-15T14:03:53;13.20;67.00
41116;DHT22;26861;51.824;4.682;2024-01-15T14:06:18;13.10;67.10
41116;DHT22;26861;51.824;4.682;2024-01-15T14:08:44;13.10;66.90
41116;DHT22;26861;51.824;4.682;2024-01-15T14:11:09;13.30;67.30
41116;DHT22;26861;51.824;4.682;2024-01-15T14:13:35;13.00;67.30
41116;DHT22;26861;51.824;4.682;2024-01-15T14:16:01;13.00;67.20
41116;DHT22;26861;51.824;4.682;2024-01-15T14:18:26;13.00;67.60
41116;DHT22;26861;51.824;4.682;2024-01-15T14:20:52;13.10;67.60
41116;DHT22;26861;51.824;4.682;2024-01-15T14:23:19;13.10;67.20
41116;DHT22;26861;51.824;4.682;2024-01-15T14:25:44;12.90;66.90
41116;DHT22;26861;51.824;4.682;2024-01-15T14:28:10;13.00;67.30
41116;DHT22;26861;51.824;4.682;2024-01-15T14:30:36;13.00;67.10
41116;DHT22;26861;51.824;4.682;2024-01-15T14:33:02;13.10;66.80
41116;DHT22;26861;51.824;4.682;2024-01-15T14:35:28;13.10;66.50
41116;DHT22;26861;51.824;4.682;2024-01-15T14:37:54;13.10;66.90
41116;DHT22;26861;51.824;4.682;2024-01-15T14:40:20;13.10;66.90
41116;DHT22;26861;51.824;4.682;2024-01-15T14:42:45;13.20;66.60
41116;DHT22;26861;51.824;4.682;2024-01-15T14:45:10;13.10;66.70
41116;DHT22;26861;51.824;4.682;2024-01-15T14:47:39;13.20;62.70
41116;DHT22;26861;51.824;4.682;2024-01-15T14:50:08;13.20;66.50
41116;DHT22;26861;51.824;4.682;2024-01-15T14:52:36;13.20;61.60
41116;DHT22;26861;51.824;4.682;2024-01-15T14:55:02;13.20;66.50
41116;DHT22;26861;51.824;4.682;2024-01-15T14:57:28;13.20;65.90
41116;DHT22;26861;51.824;4.682;2024-01-15T14:59:54;13.10;66.50
41116;DHT22;26861;51.824;4.682;2024-01-15T15:02:20;13.10;66.40
41116;DHT22;26861;51.824;4.682;2024-01-15T15:04:46;13.10;66.70
41116;DHT22;26861;51.824;4.682;2024-01-15T15:07:12;13.20;66.60
41116;DHT22;26861;51.824;4.682;2024-01-15T15:09:38;13.10;66.40
41116;DHT22;26861;51.824;4.682;2024-01-15T15:12:05;13.00;66.80
41116;DHT22;26861;51.824;4.682;2024-01-15T15:14:31;13.10;66.10
41116;DHT22;26861;51.824;4.682;2024-01-15T15:17:04;13.10;67.00
41116;DHT22;26861;51.824;4.682;2024-01-15T15:19:30;12.90;66.90
41116;DHT22;26861;51.824;4.682;2024-01-15T15:21:55;13.00;66.60
41116;DHT22;26861;51.824;4.682;2024-01-15T15:24:21;13.00;66.80
41116;DHT22;26861;51.824;4.682;2024-01-15T15:26:47;13.00;66.90
41116;DHT22;26861;51.824;4.682;2024-01-15T15:29:12;13.00;66.70
41116;DHT22;26861;51.824;4.682;2024-01-15T15:31:37;13.00;66.80
41116;DHT22;26861;51.824;4.682;2024-01-15T15:34:03;13.00;66.60
41116;DHT22;26861;51.824;4.682;2024-01-15T15:36:29;13.00;66.80
41116;DHT22;26861;51.824;4.682;2024-01-15T15:38:54;12.90;66.70